Terminal Aerodrome Forecast
Issued by NWS Goodland, KS

Home | Current Version | Previous Version | Text Only | Print | Product List | Glossary On
Versions: 1 2 3 4 5 6 7 8 9 10 11 12 13 14 15 16 17 18 19 20 21
000
FTUS43 KGLD 270535
TAFGLD
TAF
KGLD 270535Z 2706/2806 15007KT P6SM -TSRA BKN060CB
      TEMPO 2707/2709 5SM TSRA BKN040CB
     FM270900 17005KT P6SM -SHRA VCTS SCT025 BKN060CB
     FM271200 17005KT 5SM BR VCSH SCT005 BKN015
     FM271600 20015G25KT P6SM SCT060 BKN200
     FM280100 18010KT P6SM -TSRA BKN060CB=

USA.gov is the U.S. government's official web portal to all federal, state and local government web resources and services.